Blue Canyon, California
Current Conditions -  °F | °C
As of 11:52 PM on Saturday 20 Dec 2014 (Local Time) from KBLU Reporting Station
Moderate Fog Moderate Fog  
Wind Chill: 36°   Ceiling: 400
Heat Index: 41°   Visibility: 0.5mi
Dew Point: 38°   Wind: 8mph
Humidity: 89%   Direction: 150°SSE
Pressure: 30.28"   Gusts: NA
Location:  39.28°N, 120.7°W
Report Text: KBLU 210752Z AUTO 15007KT 1/2SM FG VV004 05/03 A3028 RMK AO2 RAB08E48 SLP243 P0002 T00500033 400500022
Loading
Personal Weather Stations






























Interactive Weather Map New forecast layout! Learn more

10-Day Weather Forecast

Advertisements
Track Severe Weather on mobile